sensor_id;sensor_type;location;lat;lon;timestamp;pressure;altitude;pressure_sealevel;temperature;humidity
55068;BME280;40965;52.368;9.712;2022-11-02T00:01:50;101052.50;;;10.68;73.84
55068;BME280;40965;52.368;9.712;2022-11-02T00:04:16;101034.16;;;10.62;73.76
55068;BME280;40965;52.368;9.712;2022-11-02T00:06:43;101035.94;;;10.60;73.65
55068;BME280;40965;52.368;9.712;2022-11-02T00:09:10;101025.47;;;10.60;74.42
55068;BME280;40965;52.368;9.712;2022-11-02T00:11:39;101025.44;;;10.75;73.73
55068;BME280;40965;52.368;9.712;2022-11-02T00:14:05;101028.06;;;10.69;73.88
55068;BME280;40965;52.368;9.712;2022-11-02T00:16:32;101024.56;;;10.66;74.15
55068;BME280;40965;52.368;9.712;2022-11-02T00:18:59;101013.28;;;10.56;74.34
55068;BME280;40965;52.368;9.712;2022-11-02T00:21:28;101015.03;;;10.45;75.16
55068;BME280;40965;52.368;9.712;2022-11-02T00:23:56;101027.25;;;10.46;75.38
55068;BME280;40965;52.368;9.712;2022-11-02T00:26:24;101017.66;;;10.45;75.22
55068;BME280;40965;52.368;9.712;2022-11-02T00:28:52;101021.16;;;10.42;75.47
55068;BME280;40965;52.368;9.712;2022-11-02T00:31:21;101022.91;;;10.45;75.71
55068;BME280;40965;52.368;9.712;2022-11-02T00:33:50;101009.81;;;10.45;75.64
55068;BME280;40965;52.368;9.712;2022-11-02T00:36:17;101020.28;;;10.38;75.91
55068;BME280;40965;52.368;9.712;2022-11-02T00:38:44;101010.69;;;10.36;75.92
55068;BME280;40965;52.368;9.712;2022-11-02T00:41:10;101001.97;;;10.27;76.31
55068;BME280;40965;52.368;9.712;2022-11-02T00:43:37;101005.44;;;10.22;76.94
55068;BME280;40965;52.368;9.712;2022-11-02T00:46:04;100992.38;;;10.17;76.84
55068;BME280;40965;52.368;9.712;2022-11-02T00:48:32;100985.41;;;10.16;78.01
55068;BME280;40965;52.368;9.712;2022-11-02T00:51:00;100991.50;;;10.20;77.91
55068;BME280;40965;52.368;9.712;2022-11-02T00:53:26;100985.41;;;10.08;77.97
55068;BME280;40965;52.368;9.712;2022-11-02T00:55:53;100986.31;;;10.03;78.83
55068;BME280;40965;52.368;9.712;2022-11-02T00:58:20;100991.53;;;10.00;78.85
55068;BME280;40965;52.368;9.712;2022-11-02T01:00:46;100979.34;;;9.92;78.69
55068;BME280;40965;52.368;9.712;2022-11-02T01:03:13;100981.94;;;9.88;79.28
55068;BME280;40965;52.368;9.712;2022-11-02T01:05:39;100981.09;;;9.86;79.88
55068;BME280;40965;52.368;9.712;2022-11-02T01:08:06;100976.72;;;9.80;79.93
55068;BME280;40965;52.368;9.712;2022-11-02T01:10:33;100974.09;;;9.72;80.58
55068;BME280;40965;52.368;9.712;2022-11-02T01:13:00;100976.72;;;9.72;81.00
55068;BME280;40965;52.368;9.712;2022-11-02T01:15:27;100974.97;;;9.70;80.76
55068;BME280;40965;52.368;9.712;2022-11-02T01:17:54;100977.59;;;9.68;81.27
55068;BME280;40965;52.368;9.712;2022-11-02T01:20:20;100972.38;;;9.73;81.33
55068;BME280;40965;52.368;9.712;2022-11-02T01:22:47;100973.25;;;9.76;81.27
55068;BME280;40965;52.368;9.712;2022-11-02T01:25:13;100969.75;;;9.77;81.30
55068;BME280;40965;52.368;9.712;2022-11-02T01:27:40;100964.56;;;9.79;81.29
55068;BME280;40965;52.368;9.712;2022-11-02T01:30:07;100965.41;;;9.86;81.46
55068;BME280;40965;52.368;9.712;2022-11-02T01:32:33;100961.03;;;9.89;81.00
55068;BME280;40965;52.368;9.712;2022-11-02T01:35:00;100959.28;;;9.91;80.87
55068;BME280;40965;52.368;9.712;2022-11-02T01:37:27;100952.31;;;9.93;80.76
55068;BME280;40965;52.368;9.712;2022-11-02T01:39:53;100946.19;;;10.07;80.16
55068;BME280;40965;52.368;9.712;2022-11-02T01:42:23;100933.94;;;10.17;79.65
55068;BME280;40965;52.368;9.712;2022-11-02T01:44:52;100930.44;;;10.24;79.56
55068;BME280;40965;52.368;9.712;2022-11-02T01:47:39;100920.81;;;10.32;78.99
55068;BME280;40965;52.368;9.712;2022-11-02T01:50:14;100921.72;;;10.40;78.44
55068;BME280;40965;52.368;9.712;2022-11-02T01:52:45;100912.06;;;10.49;78.14
55068;BME280;40965;52.368;9.712;2022-11-02T01:55:15;100913.81;;;10.50;78.04
55068;BME280;40965;52.368;9.712;2022-11-02T01:57:50;100903.31;;;10.53;78.01
55068;BME280;40965;52.368;9.712;2022-11-02T02:00:19;100906.78;;;10.58;77.80
55068;BME280;40965;52.368;9.712;2022-11-02T02:02:50;100905.94;;;10.57;77.52
55068;BME280;40965;52.368;9.712;2022-11-02T02:05:44;100901.53;;;10.59;77.40
55068;BME280;40965;52.368;9.712;2022-11-02T02:08:17;100905.00;;;10.69;77.23
55068;BME280;40965;52.368;9.712;2022-11-02T02:10:45;100901.47;;;10.73;77.21
55068;BME280;40965;52.368;9.712;2022-11-02T02:13:12;100905.81;;;10.78;77.03
55068;BME280;40965;52.368;9.712;2022-11-02T02:16:35;100910.19;;;10.79;76.60
55068;BME280;40965;52.368;9.712;2022-11-02T02:18:45;100904.94;;;10.80;76.58
55068;BME280;40965;52.368;9.712;2022-11-02T02:21:36;100910.97;;;10.88;76.18
55068;BME280;40965;52.368;9.712;2022-11-02T02:24:27;100914.44;;;10.92;76.04
55068;BME280;40965;52.368;9.712;2022-11-02T02:30:21;100916.09;;;11.08;75.69
55068;BME280;40965;52.368;9.712;2022-11-02T02:32:54;100913.41;;;11.18;75.00
55068;BME280;40965;52.368;9.712;2022-11-02T02:35:26;100896.81;;;11.19;74.69
55068;BME280;40965;52.368;9.712;2022-11-02T02:38:14;100913.44;;;11.16;75.00
55068;BME280;40965;52.368;9.712;2022-11-02T02:40:49;100907.31;;;11.16;75.19
55068;BME280;40965;52.368;9.712;2022-11-02T02:46:00;100906.41;;;11.21;75.24
55068;BME280;40965;52.368;9.712;2022-11-02T02:48:33;100899.38;;;11.27;74.92
55068;BME280;40965;52.368;9.712;2022-11-02T02:51:09;100912.44;;;11.31;74.71
55068;BME280;40965;52.368;9.712;2022-11-02T02:53:41;100916.78;;;11.37;74.58
55068;BME280;40965;52.368;9.712;2022-11-02T02:56:11;100914.97;;;11.40;74.13
55068;BME280;40965;52.368;9.712;2022-11-02T02:58:51;100911.47;;;11.41;74.05
55068;BME280;40965;52.368;9.712;2022-11-02T03:01:24;100904.50;;;11.42;74.25
55068;BME280;40965;52.368;9.712;2022-11-02T03:03:51;100908.84;;;11.43;74.95
55068;BME280;40965;52.368;9.712;2022-11-02T03:06:22;100912.34;;;11.44;74.87
55068;BME280;40965;52.368;9.712;2022-11-02T03:09:18;100907.13;;;11.42;75.14
55068;BME280;40965;52.368;9.712;2022-11-02T03:15:03;100905.38;;;11.38;75.36
55068;BME280;40965;52.368;9.712;2022-11-02T03:20:44;100902.81;;;11.30;75.77
55068;BME280;40965;52.368;9.712;2022-11-02T03:23:30;100920.34;;;11.28;75.95
55068;BME280;40965;52.368;9.712;2022-11-02T03:26:29;100925.53;;;11.33;75.97
55068;BME280;40965;52.368;9.712;2022-11-02T03:29:13;100916.78;;;11.34;75.83
55068;BME280;40965;52.368;9.712;2022-11-02T03:31:50;100910.66;;;11.36;75.87
55068;BME280;40965;52.368;9.712;2022-11-02T03:34:23;100906.28;;;11.38;75.99
55068;BME280;40965;52.368;9.712;2022-11-02T03:37:13;100916.75;;;11.40;76.01
55068;BME280;40965;52.368;9.712;2022-11-02T03:39:46;100913.19;;;11.46;76.10
55068;BME280;40965;52.368;9.712;2022-11-02T03:42:19;100914.91;;;11.51;76.20
55068;BME280;40965;52.368;9.712;2022-11-02T03:44:51;100908.75;;;11.52;76.30
55068;BME280;40965;52.368;9.712;2022-11-02T03:47:21;100925.38;;;11.53;76.67
55068;BME280;40965;52.368;9.712;2022-11-02T03:49:51;100912.28;;;11.50;76.80
55068;BME280;40965;52.368;9.712;2022-11-02T03:52:25;100921.06;;;11.44;77.28
55068;BME280;40965;52.368;9.712;2022-11-02T03:55:14;100908.84;;;11.43;78.06
55068;BME280;40965;52.368;9.712;2022-11-02T03:57:47;100921.09;;;11.42;77.98
55068;BME280;40965;52.368;9.712;2022-11-02T04:00:24;100911.53;;;11.38;78.52
55068;BME280;40965;52.368;9.712;2022-11-02T04:02:57;100908.84;;;11.43;78.26
55068;BME280;40965;52.368;9.712;2022-11-02T04:05:35;100912.38;;;11.42;78.16
55068;BME280;40965;52.368;9.712;2022-11-02T04:08:03;100918.53;;;11.35;78.77
55068;BME280;40965;52.368;9.712;2022-11-02T04:10:49;100921.13;;;11.38;78.38
55068;BME280;40965;52.368;9.712;2022-11-02T04:13:34;100918.50;;;11.36;78.37
55068;BME280;40965;52.368;9.712;2022-11-02T04:16:19;100917.72;;;11.28;78.94
55068;BME280;40965;52.368;9.712;2022-11-02T04:18:46;100910.78;;;11.22;79.03
55068;BME280;40965;52.368;9.712;2022-11-02T04:21:30;100916.06;;;11.12;79.26
55068;BME280;40965;52.368;9.712;2022-11-02T04:23:56;100924.03;;;10.95;79.78
55068;BME280;40965;52.368;9.712;2022-11-02T04:26:40;100930.28;;;10.78;80.71
55068;BME280;40965;52.368;9.712;2022-11-02T04:29:07;100935.53;;;10.70;81.16
55068;BME280;40965;52.368;9.712;2022-11-02T04:31:34;100928.56;;;10.68;81.07
55068;BME280;40965;52.368;9.712;2022-11-02T04:34:00;100939.06;;;10.57;81.43
55068;BME280;40965;52.368;9.712;2022-11-02T04:36:29;100943.47;;;10.52;81.59
55068;BME280;40965;52.368;9.712;2022-11-02T04:38:57;100940.88;;;10.47;82.16
55068;BME280;40965;52.368;9.712;2022-11-02T04:41:23;100946.09;;;10.47;82.19
55068;BME280;40965;52.368;9.712;2022-11-02T04:44:12;100933.91;;;10.38;82.47
55068;BME280;40965;52.368;9.712;2022-11-02T04:46:41;100941.78;;;10.27;83.30
55068;BME280;40965;52.368;9.712;2022-11-02T04:49:09;100945.28;;;10.23;83.29
55068;BME280;40965;52.368;9.712;2022-11-02T04:51:37;100943.56;;;10.15;83.61
55068;BME280;40965;52.368;9.712;2022-11-02T04:54:05;100938.31;;;10.10;84.16
55068;BME280;40965;52.368;9.712;2022-11-02T04:56:32;100950.53;;;10.13;84.19
55068;BME280;40965;52.368;9.712;2022-11-02T04:58:59;100947.94;;;10.06;84.31
55068;BME280;40965;52.368;9.712;2022-11-02T05:01:27;100948.78;;;10.08;84.51
55068;BME280;40965;52.368;9.712;2022-11-02T05:03:54;100953.16;;;10.03;84.62
55068;BME280;40965;52.368;9.712;2022-11-02T05:06:22;100956.66;;;9.99;85.06
55068;BME280;40965;52.368;9.712;2022-11-02T05:08:49;100946.22;;;9.99;85.45
55068;BME280;40965;52.368;9.712;2022-11-02T05:11:17;100943.59;;;9.91;85.74
55068;BME280;40965;52.368;9.712;2022-11-02T05:13:43;100944.47;;;9.90;85.49
55068;BME280;40965;52.368;9.712;2022-11-02T05:16:12;100948.00;;;9.82;86.37
55068;BME280;40965;52.368;9.712;2022-11-02T05:18:40;100945.34;;;9.80;86.42
55068;BME280;40965;52.368;9.712;2022-11-02T05:21:08;100947.97;;;9.77;86.62
55068;BME280;40965;52.368;9.712;2022-11-02T05:23:36;100949.72;;;9.76;87.26
55068;BME280;40965;52.368;9.712;2022-11-02T05:26:05;100942.75;;;9.77;86.92
55068;BME280;40965;52.368;9.712;2022-11-02T05:28:35;100941.00;;;9.70;87.96
55068;BME280;40965;52.368;9.712;2022-11-02T05:31:02;100946.25;;;9.62;88.07
55068;BME280;40965;52.368;9.712;2022-11-02T05:33:30;100943.63;;;9.57;88.30
55068;BME280;40965;52.368;9.712;2022-11-02T05:35:58;100944.50;;;9.55;88.37
55068;BME280;40965;52.368;9.712;2022-11-02T05:38:26;100942.75;;;9.54;88.91
55068;BME280;40965;52.368;9.712;2022-11-02T05:40:54;100947.13;;;9.64;88.50
55068;BME280;40965;52.368;9.712;2022-11-02T05:43:23;100947.09;;;9.72;88.10
55068;BME280;40965;52.368;9.712;2022-11-02T05:45:51;100942.72;;;9.88;88.06
55068;BME280;40965;52.368;9.712;2022-11-02T05:48:19;100956.66;;;10.07;86.69
55068;BME280;40965;52.368;9.712;2022-11-02T05:50:49;100953.13;;;10.26;85.39
55068;BME280;40965;52.368;9.712;2022-11-02T05:53:24;100954.84;;;10.41;84.19
55068;BME280;40965;52.368;9.712;2022-11-02T05:55:57;100956.59;;;10.39;84.04
55068;BME280;40965;52.368;9.712;2022-11-02T05:58:25;100959.22;;;10.27;84.75
55068;BME280;40965;52.368;9.712;2022-11-02T06:00:53;100957.53;;;10.10;85.70
55068;BME280;40965;52.368;9.712;2022-11-02T06:03:23;100955.81;;;9.94;86.52
55068;BME280;40965;52.368;9.712;2022-11-02T06:05:57;100954.06;;;9.82;87.40
55068;BME280;40965;52.368;9.712;2022-11-02T06:08:25;100957.56;;;9.73;87.82
55068;BME280;40965;52.368;9.712;2022-11-02T06:10:53;100957.56;;;9.64;88.79
55068;BME280;40965;52.368;9.712;2022-11-02T06:13:20;100958.44;;;9.60;88.87
55068;BME280;40965;52.368;9.712;2022-11-02T06:15:46;100974.13;;;9.52;89.30
55068;BME280;40965;52.368;9.712;2022-11-02T06:18:13;100960.16;;;9.50;89.83
55068;BME280;40965;52.368;9.712;2022-11-02T06:20:39;100963.66;;;9.55;89.91
55068;BME280;40965;52.368;9.712;2022-11-02T06:23:07;100974.13;;;9.54;90.06
55068;BME280;40965;52.368;9.712;2022-11-02T06:25:33;100960.19;;;9.52;89.59
55068;BME280;40965;52.368;9.712;2022-11-02T06:28:02;100965.41;;;9.52;90.32
55068;BME280;40965;52.368;9.712;2022-11-02T06:30:29;100966.28;;;9.60;90.15
55068;BME280;40965;52.368;9.712;2022-11-02T06:32:55;100972.41;;;9.54;89.40
55068;BME280;40965;52.368;9.712;2022-11-02T06:35:22;100968.91;;;9.49;90.75
55068;BME280;40965;52.368;9.712;2022-11-02T06:37:48;100973.25;;;9.49;90.72
55068;BME280;40965;52.368;9.712;2022-11-02T06:40:27;100983.69;;;9.42;91.09
55068;BME280;40965;52.368;9.712;2022-11-02T06:42:57;100983.69;;;9.46;91.20
55068;BME280;40965;52.368;9.712;2022-11-02T06:45:27;100991.53;;;9.42;91.13
55068;BME280;40965;52.368;9.712;2022-11-02T06:47:53;100991.53;;;9.42;91.29
55068;BME280;40965;52.368;9.712;2022-11-02T06:50:20;100989.81;;;9.40;91.62
55068;BME280;40965;52.368;9.712;2022-11-02T06:52:47;100992.41;;;9.41;91.52
55068;BME280;40965;52.368;9.712;2022-11-02T06:55:17;100996.75;;;9.49;91.21
55068;BME280;40965;52.368;9.712;2022-11-02T06:57:44;100995.91;;;9.54;91.46
55068;BME280;40965;52.368;9.712;2022-11-02T07:00:13;100994.16;;;9.63;90.45
55068;BME280;40965;52.368;9.712;2022-11-02T07:02:44;100993.28;;;9.65;90.85
55068;BME280;40965;52.368;9.712;2022-11-02T07:05:11;100988.06;;;9.64;90.42
55068;BME280;40965;52.368;9.712;2022-11-02T07:07:38;101000.28;;;9.57;90.73
55068;BME280;40965;52.368;9.712;2022-11-02T07:10:05;101008.97;;;9.54;91.58
55068;BME280;40965;52.368;9.712;2022-11-02T07:12:36;101013.31;;;9.54;91.21
55068;BME280;40965;52.368;9.712;2022-11-02T07:15:06;101010.72;;;9.60;91.40
55068;BME280;40965;52.368;9.712;2022-11-02T07:17:39;101019.44;;;9.62;91.54
55068;BME280;40965;52.368;9.712;2022-11-02T07:20:10;101024.66;;;9.84;90.18
55068;BME280;40965;52.368;9.712;2022-11-02T07:22:37;101027.28;;;10.01;89.66
55068;BME280;40965;52.368;9.712;2022-11-02T07:25:06;101032.47;;;10.25;88.13
55068;BME280;40965;52.368;9.712;2022-11-02T07:27:39;101038.59;;;10.51;86.14
55068;BME280;40965;52.368;9.712;2022-11-02T07:30:06;101033.31;;;10.60;85.47
55068;BME280;40965;52.368;9.712;2022-11-02T07:32:40;101042.00;;;10.64;85.44
55068;BME280;40965;52.368;9.712;2022-11-02T07:35:09;101038.50;;;10.72;84.95
55068;BME280;40965;52.368;9.712;2022-11-02T07:37:37;101035.84;;;10.85;84.29
55068;BME280;40965;52.368;9.712;2022-11-02T07:40:06;101042.75;;;11.01;83.65
55068;BME280;40965;52.368;9.712;2022-11-02T07:42:35;101039.25;;;11.05;83.31
55068;BME280;40965;52.368;9.712;2022-11-02T07:45:01;101051.44;;;11.14;82.27
55068;BME280;40965;52.368;9.712;2022-11-02T07:47:28;101053.97;;;11.31;81.05
55068;BME280;40965;52.368;9.712;2022-11-02T07:49:55;101044.28;;;11.44;80.28
55068;BME280;40965;52.368;9.712;2022-11-02T07:52:26;101039.81;;;11.62;79.04
55068;BME280;40965;52.368;9.712;2022-11-02T07:54:53;101047.59;;;11.72;78.52
55068;BME280;40965;52.368;9.712;2022-11-02T07:57:21;101051.00;;;11.84;77.20
55068;BME280;40965;52.368;9.712;2022-11-02T07:59:50;101063.16;;;11.99;76.15
55068;BME280;40965;52.368;9.712;2022-11-02T08:02:16;101061.28;;;12.13;75.14
55068;BME280;40965;52.368;9.712;2022-11-02T08:04:43;101054.16;;;12.28;74.13
55068;BME280;40965;52.368;9.712;2022-11-02T08:07:12;101056.69;;;12.37;73.28
55068;BME280;40965;52.368;9.712;2022-11-02T08:09:41;101055.72;;;12.46;72.91
55068;BME280;40965;52.368;9.712;2022-11-02T08:12:08;101046.03;;;12.51;72.07
55068;BME280;40965;52.368;9.712;2022-11-02T08:14:34;101069.63;;;12.54;72.01
55068;BME280;40965;52.368;9.712;2022-11-02T08:17:11;101066.13;;;12.58;71.68
55068;BME280;40965;52.368;9.712;2022-11-02T08:19:38;101052.00;;;12.67;71.22
55068;BME280;40965;52.368;9.712;2022-11-02T08:22:04;101069.44;;;12.71;70.96
55068;BME280;40965;52.368;9.712;2022-11-02T08:24:33;101072.06;;;12.74;70.36
55068;BME280;40965;52.368;9.712;2022-11-02T08:27:00;101075.53;;;12.74;70.53
55068;BME280;40965;52.368;9.712;2022-11-02T08:29:26;101066.81;;;12.74;69.98
55068;BME280;40965;52.368;9.712;2022-11-02T08:31:53;101069.41;;;12.76;69.85
55068;BME280;40965;52.368;9.712;2022-11-02T08:34:19;101083.38;;;12.81;70.11
55068;BME280;40965;52.368;9.712;2022-11-02T08:36:49;101087.75;;;12.82;69.98
55068;BME280;40965;52.368;9.712;2022-11-02T08:39:19;101096.53;;;12.79;70.11
55068;BME280;40965;52.368;9.712;2022-11-02T08:41:47;101077.25;;;12.80;69.36
55068;BME280;40965;52.368;9.712;2022-11-02T08:44:13;101064.03;;;12.86;68.65
55068;BME280;40965;52.368;9.712;2022-11-02T08:46:40;101090.31;;;12.85;68.56
55068;BME280;40965;52.368;9.712;2022-11-02T08:49:06;101069.28;;;12.86;68.06
55068;BME280;40965;52.368;9.712;2022-11-02T08:51:33;101086.75;;;12.92;68.18
55068;BME280;40965;52.368;9.712;2022-11-02T08:53:59;101091.00;;;13.04;67.62
55068;BME280;40965;52.368;9.712;2022-11-02T08:56:28;101088.19;;;13.16;66.94
55068;BME280;40965;52.368;9.712;2022-11-02T08:58:55;101098.59;;;13.24;66.66
55068;BME280;40965;52.368;9.712;2022-11-02T09:01:24;101098.72;;;13.15;66.46
55068;BME280;40965;52.368;9.712;2022-11-02T09:03:51;101096.19;;;13.07;67.16
55068;BME280;40965;52.368;9.712;2022-11-02T09:06:17;101112.91;;;13.03;67.47
55068;BME280;40965;52.368;9.712;2022-11-02T09:08:44;101091.00;;;13.02;67.38
55068;BME280;40965;52.368;9.712;2022-11-02T09:11:10;101099.78;;;12.98;67.96
55068;BME280;40965;52.368;9.712;2022-11-02T09:13:37;101097.19;;;13.00;67.83
55068;BME280;40965;52.368;9.712;2022-11-02T09:16:04;101112.97;;;12.97;67.33
55068;BME280;40965;52.368;9.712;2022-11-02T09:18:31;101115.53;;;13.01;67.85
55068;BME280;40965;52.368;9.712;2022-11-02T09:21:04;101115.41;;;13.12;67.39
55068;BME280;40965;52.368;9.712;2022-11-02T09:23:31;101119.72;;;13.18;66.64
55068;BME280;40965;52.368;9.712;2022-11-02T09:25:58;101112.53;;;13.32;66.25
55068;BME280;40965;52.368;9.712;2022-11-02T09:28:25;101122.13;;;13.39;65.70
55068;BME280;40965;52.368;9.712;2022-11-02T09:30:51;101118.53;;;13.47;65.24
55068;BME280;40965;52.368;9.712;2022-11-02T09:33:18;101119.34;;;13.49;65.47
55068;BME280;40965;52.368;9.712;2022-11-02T09:35:48;101134.19;;;13.53;64.88
55068;BME280;40965;52.368;9.712;2022-11-02T09:38:15;101126.28;;;13.56;64.38
55068;BME280;40965;52.368;9.712;2022-11-02T09:41:01;101121.91;;;13.55;63.79
55068;BME280;40965;52.368;9.712;2022-11-02T09:44:06;101123.53;;;13.62;63.80
55068;BME280;40965;52.368;9.712;2022-11-02T09:46:39;101123.56;;;13.64;63.31
55068;BME280;40965;52.368;9.712;2022-11-02T09:49:18;101132.44;;;13.55;62.96
55068;BME280;40965;52.368;9.712;2022-11-02T09:51:47;101134.06;;;13.62;62.53
55068;BME280;40965;52.368;9.712;2022-11-02T09:54:20;101126.91;;;13.73;60.76
55068;BME280;40965;52.368;9.712;2022-11-02T09:56:51;101137.41;;;13.75;60.79
55068;BME280;40965;52.368;9.712;2022-11-02T09:59:23;101158.25;;;13.89;60.16
55068;BME280;40965;52.368;9.712;2022-11-02T10:02:14;101138.81;;;13.99;59.29
55068;BME280;40965;52.368;9.712;2022-11-02T10:10:33;101161.63;;;13.97;58.69
55068;BME280;40965;52.368;9.712;2022-11-02T10:13:32;101156.47;;;13.93;57.83
55068;BME280;40965;52.368;9.712;2022-11-02T10:16:20;101170.41;;;13.99;57.86
55068;BME280;40965;52.368;9.712;2022-11-02T10:18:56;101174.66;;;14.06;57.15
55068;BME280;40965;52.368;9.712;2022-11-02T10:21:27;101157.97;;;14.07;57.55
55068;BME280;40965;52.368;9.712;2022-11-02T10:24:01;101153.47;;;14.14;56.34
55068;BME280;40965;52.368;9.712;2022-11-02T10:26:48;101171.25;;;14.00;57.28
55068;BME280;40965;52.368;9.712;2022-11-02T10:29:32;101164.00;;;14.14;56.97
55068;BME280;40965;52.368;9.712;2022-11-02T10:32:09;101172.69;;;14.22;56.85
55068;BME280;40965;52.368;9.712;2022-11-02T10:34:38;101177.03;;;14.25;56.05
55068;BME280;40965;52.368;9.712;2022-11-02T10:49:04;101191.44;;;13.99;54.94
55068;BME280;40965;52.368;9.712;2022-11-02T10:51:38;101223.06;;;13.98;55.17
55068;BME280;40965;52.368;9.712;2022-11-02T10:54:10;101185.44;;;13.91;55.17
55068;BME280;40965;52.368;9.712;2022-11-02T10:56:41;101207.63;;;13.73;55.62
55068;BME280;40965;52.368;9.712;2022-11-02T10:59:16;101211.19;;;13.69;55.98
55068;BME280;40965;52.368;9.712;2022-11-02T11:04:28;101227.94;;;13.60;55.57
55068;BME280;40965;52.368;9.712;2022-11-02T11:07:05;101234.94;;;13.60;54.64
55068;BME280;40965;52.368;9.712;2022-11-02T11:09:53;101239.50;;;13.47;54.25
55068;BME280;40965;52.368;9.712;2022-11-02T11:12:26;101240.53;;;13.29;55.06
55068;BME280;40965;52.368;9.712;2022-11-02T11:15:00;101264.25;;;13.22;55.15
55068;BME280;40965;52.368;9.712;2022-11-02T11:17:36;101218.75;;;13.17;54.26
55068;BME280;40965;52.368;9.712;2022-11-02T11:20:26;101253.88;;;13.12;54.41
55068;BME280;40965;52.368;9.712;2022-11-02T11:23:23;101240.63;;;13.18;54.41
55068;BME280;40965;52.368;9.712;2022-11-02T11:25:59;101243.28;;;13.19;54.29
55068;BME280;40965;52.368;9.712;2022-11-02T11:28:33;101238.91;;;13.17;54.68
55068;BME280;40965;52.368;9.712;2022-11-02T11:31:13;101253.81;;;13.15;55.13
55068;BME280;40965;52.368;9.712;2022-11-02T11:33:44;101253.69;;;13.26;55.29
55068;BME280;40965;52.368;9.712;2022-11-02T11:36:29;101237.81;;;13.35;55.27
55068;BME280;40965;52.368;9.712;2022-11-02T11:38:59;101247.47;;;13.40;55.39
55068;BME280;40965;52.368;9.712;2022-11-02T11:42:02;101249.94;;;13.53;55.04
55068;BME280;40965;52.368;9.712;2022-11-02T11:44:29;101230.50;;;13.65;54.16
55068;BME280;40965;52.368;9.712;2022-11-02T11:46:57;101261.25;;;13.60;54.24
55068;BME280;40965;52.368;9.712;2022-11-02T11:49:28;101258.69;;;13.55;54.39
55068;BME280;40965;52.368;9.712;2022-11-02T11:51:58;101270.19;;;13.45;54.48
55068;BME280;40965;52.368;9.712;2022-11-02T11:54:30;101274.66;;;13.38;54.43
55068;BME280;40965;52.368;9.712;2022-11-02T11:56:59;101261.38;;;13.49;54.08
55068;BME280;40965;52.368;9.712;2022-11-02T12:02:23;101276.97;;;13.66;54.25
55068;BME280;40965;52.368;9.712;2022-11-02T12:05:14;101280.47;;;13.65;54.61
55068;BME280;40965;52.368;9.712;2022-11-02T12:11:16;101266.06;;;13.97;53.66
55068;BME280;40965;52.368;9.712;2022-11-02T12:14:05;101269.41;;;14.10;53.05
55068;BME280;40965;52.368;9.712;2022-11-02T12:16:55;101279.94;;;14.10;52.88
55068;BME280;40965;52.368;9.712;2022-11-02T12:20:12;101280.06;;;14.00;52.50
55068;BME280;40965;52.368;9.712;2022-11-02T12:23:12;101269.66;;;13.91;52.54
55068;BME280;40965;52.368;9.712;2022-11-02T12:29:06;101288.47;;;13.57;54.68
55068;BME280;40965;52.368;9.712;2022-11-02T12:31:50;101290.44;;;13.33;55.71
55068;BME280;40965;52.368;9.712;2022-11-02T12:40:51;101301.06;;;13.24;54.98
55068;BME280;40965;52.368;9.712;2022-11-02T12:43:36;101323.81;;;13.27;55.07
55068;BME280;40965;52.368;9.712;2022-11-02T12:46:27;101319.34;;;13.35;54.15
55068;BME280;40965;52.368;9.712;2022-11-02T12:49:29;101322.00;;;13.33;53.78
55068;BME280;40965;52.368;9.712;2022-11-02T12:52:18;101321.97;;;13.35;53.62
55068;BME280;40965;52.368;9.712;2022-11-02T12:54:56;101311.41;;;13.43;52.85
55068;BME280;40965;52.368;9.712;2022-11-02T12:57:26;101314.09;;;13.38;52.72
55068;BME280;40965;52.368;9.712;2022-11-02T13:00:00;101326.47;;;13.25;53.33
55068;BME280;40965;52.368;9.712;2022-11-02T13:02:33;101320.34;;;13.21;53.19
55068;BME280;40965;52.368;9.712;2022-11-02T13:05:14;101306.38;;;13.19;53.41
55068;BME280;40965;52.368;9.712;2022-11-02T13:10:43;101315.97;;;13.23;53.58
55068;BME280;40965;52.368;9.712;2022-11-02T13:13:21;101327.38;;;13.18;54.32
55068;BME280;40965;52.368;9.712;2022-11-02T13:15:52;101322.22;;;13.08;55.24
55068;BME280;40965;52.368;9.712;2022-11-02T13:18:24;101322.25;;;13.05;55.89
55068;BME280;40965;52.368;9.712;2022-11-02T13:20:56;101322.19;;;13.10;55.95
55068;BME280;40965;52.368;9.712;2022-11-02T13:23:34;101329.19;;;13.13;56.26
55068;BME280;40965;52.368;9.712;2022-11-02T13:26:34;101337.94;;;13.15;55.96
55068;BME280;40965;52.368;9.712;2022-11-02T13:29:23;101339.72;;;13.14;56.07
55068;BME280;40965;52.368;9.712;2022-11-02T13:32:03;101352.84;;;13.14;56.39
55068;BME280;40965;52.368;9.712;2022-11-02T13:34:36;101352.72;;;13.27;56.15
55068;BME280;40965;52.368;9.712;2022-11-02T13:37:10;101346.50;;;13.42;54.27
55068;BME280;40965;52.368;9.712;2022-11-02T13:39:44;101333.34;;;13.40;52.52
55068;BME280;40965;52.368;9.712;2022-11-02T13:45:37;101343.25;;;13.08;53.42
55068;BME280;40965;52.368;9.712;2022-11-02T13:50:55;101341.56;;;13.01;53.75
55068;BME280;40965;52.368;9.712;2022-11-02T13:53:38;101343.38;;;12.91;54.01
55068;BME280;40965;52.368;9.712;2022-11-02T13:56:08;101343.41;;;12.90;54.06
55068;BME280;40965;52.368;9.712;2022-11-02T13:58:45;101345.19;;;12.85;54.16
55068;BME280;40965;52.368;9.712;2022-11-02T14:01:16;101350.50;;;12.77;54.53
55068;BME280;40965;52.368;9.712;2022-11-02T14:03:50;101350.59;;;12.65;55.33
55068;BME280;40965;52.368;9.712;2022-11-02T14:06:19;101351.38;;;12.76;54.94
55068;BME280;40965;52.368;9.712;2022-11-02T14:08:55;101352.16;;;12.89;54.38
55068;BME280;40965;52.368;9.712;2022-11-02T14:11:44;101358.22;;;12.99;54.59
55068;BME280;40965;52.368;9.712;2022-11-02T14:14:22;101347.69;;;13.05;54.53
55068;BME280;40965;52.368;9.712;2022-11-02T14:29:52;101364.47;;;12.82;56.13
55068;BME280;40965;52.368;9.712;2022-11-02T14:34:59;101361.91;;;12.74;56.88